createdAt,value
2023-05-11T00:00:04.596Z,5.60
2023-05-11T00:01:08.412Z,5.20
2023-05-11T00:02:12.140Z,4.95
2023-05-11T00:03:14.547Z,5.80
2023-05-11T00:04:17.182Z,5.07
2023-05-11T00:05:20.451Z,5.68
2023-05-11T00:06:22.490Z,5.53
2023-05-11T00:07:24.955Z,6.05
2023-05-11T00:08:27.230Z,4.90
2023-05-11T00:09:29.369Z,5.15
2023-05-11T00:10:31.579Z,5.88
2023-05-11T00:11:33.555Z,5.85
2023-05-11T00:12:35.562Z,5.45
2023-05-11T00:13:38.088Z,5.07
2023-05-11T00:14:40.739Z,4.97
2023-05-11T00:15:43.019Z,5.28
2023-05-11T00:16:45.175Z,6.18
2023-05-11T00:17:47.274Z,5.88
2023-05-11T00:18:49.635Z,7.20
2023-05-11T00:19:51.694Z,6.38
2023-05-11T00:20:54.312Z,5.50
2023-05-11T00:21:56.311Z,5.45
2023-05-11T00:22:58.324Z,5.90
2023-05-11T00:24:00.382Z,5.03
2023-05-11T00:25:02.560Z,5.40
2023-05-11T00:26:04.657Z,5.20
2023-05-11T00:27:06.857Z,4.40
2023-05-11T00:28:10.289Z,5.07
2023-05-11T00:29:12.366Z,4.55
2023-05-11T00:30:15.704Z,4.60
2023-05-11T00:31:17.901Z,4.70
2023-05-11T00:32:20.020Z,4.78
2023-05-11T00:33:23.908Z,4.45
2023-05-11T00:34:26.097Z,4.20
2023-05-11T00:35:29.086Z,4.47
2023-05-11T00:36:31.396Z,4.00
2023-05-11T00:37:33.453Z,3.70
2023-05-11T00:38:36.794Z,3.22
2023-05-11T00:39:40.665Z,3.72
2023-05-11T00:40:43.229Z,3.60
2023-05-11T00:41:45.369Z,3.50
2023-05-11T00:44:02.069Z,4.20
2023-05-11T00:45:04.685Z,3.38
2023-05-11T00:46:07.096Z,2.97
2023-05-11T00:47:09.642Z,3.77
2023-05-11T00:48:11.766Z,3.78
2023-05-11T00:49:17.254Z,3.50
2023-05-11T00:50:19.667Z,3.40
2023-05-11T00:51:22.203Z,3.35
2023-05-11T00:52:24.780Z,3.50
2023-05-11T00:53:26.984Z,3.58
2023-05-11T00:54:29.196Z,3.15
2023-05-11T00:55:31.514Z,3.30
2023-05-11T00:56:33.540Z,3.33
2023-05-11T00:57:36.278Z,3.47
2023-05-11T00:58:38.540Z,3.50
2023-05-11T00:59:41.126Z,3.60
2023-05-11T01:00:44.534Z,3.55
2023-05-11T01:01:46.637Z,3.80
2023-05-11T01:02:49.295Z,3.80
2023-05-11T01:03:51.473Z,3.75
2023-05-11T01:04:53.558Z,3.50
2023-05-11T01:06:09.136Z,3.55
2023-05-11T01:07:19.501Z,3.03
2023-05-11T01:08:31.124Z,3.43
2023-05-11T01:09:55.079Z,3.50
2023-05-11T01:11:20.059Z,3.30
2023-05-11T01:12:51.478Z,3.70
2023-05-11T01:13:59.744Z,3.40
2023-05-11T01:15:46.498Z,3.25
2023-05-11T01:16:56.895Z,3.40
2023-05-11T01:18:04.002Z,3.05
2023-05-11T01:19:43.453Z,3.70
2023-05-11T01:20:49.786Z,2.97
2023-05-11T01:21:52.070Z,3.23
2023-05-11T01:23:10.629Z,3.42
2023-05-11T01:24:47.765Z,3.42
2023-05-11T01:26:22.372Z,3.35
2023-05-11T01:27:55.648Z,3.35
2023-05-11T01:29:24.580Z,4.07
2023-05-11T01:30:48.190Z,4.28
2023-05-11T01:31:54.432Z,3.20
2023-05-11T01:33:02.414Z,3.17
2023-05-11T01:34:10.057Z,3.35
2023-05-11T01:35:22.200Z,3.23
2023-05-11T01:36:29.116Z,3.20
2023-05-11T01:37:35.006Z,3.22
2023-05-11T01:38:41.087Z,3.40
2023-05-11T01:40:02.931Z,2.97
2023-05-11T01:41:14.788Z,2.75
2023-05-11T01:42:20.981Z,3.50
2023-05-11T01:43:26.123Z,3.33
2023-05-11T01:44:31.672Z,3.08
2023-05-11T01:45:36.397Z,3.00
2023-05-11T01:46:40.066Z,3.00
2023-05-11T01:47:45.040Z,3.25
2023-05-11T01:48:51.528Z,2.97
2023-05-11T01:49:57.980Z,3.10
2023-05-11T01:51:03.153Z,3.47
2023-05-11T01:52:08.473Z,3.33
2023-05-11T01:53:14.009Z,3.28
2023-05-11T01:54:17.849Z,3.00
2023-05-11T01:55:22.201Z,3.30
2023-05-11T01:56:26.903Z,2.90
2023-05-11T01:57:31.442Z,3.10
2023-05-11T01:58:35.800Z,3.83
2023-05-11T01:59:40.485Z,3.13
2023-05-11T02:00:44.530Z,2.88
2023-05-11T02:01:47.278Z,2.60
2023-05-11T02:02:50.570Z,3.15
2023-05-11T02:03:53.850Z,2.63
2023-05-11T02:04:58.112Z,2.80
2023-05-11T02:06:03.503Z,3.28
2023-05-11T02:07:07.505Z,2.95
2023-05-11T02:08:10.461Z,2.80
2023-05-11T02:09:13.568Z,3.10
2023-05-11T02:10:18.637Z,3.60
2023-05-11T02:11:24.259Z,3.50
2023-05-11T02:12:27.601Z,3.55
2023-05-11T02:13:30.870Z,3.40
2023-05-11T02:14:36.692Z,3.58
2023-05-11T02:15:42.244Z,3.20
2023-05-11T02:16:46.773Z,3.67
2023-05-11T02:17:49.294Z,3.20
2023-05-11T02:18:52.290Z,3.50
2023-05-11T02:19:55.549Z,3.20
2023-05-11T02:21:00.375Z,3.28
2023-05-11T02:22:04.416Z,3.70
2023-05-11T02:23:08.794Z,4.20
2023-05-11T02:24:11.696Z,3.60
2023-05-11T02:25:15.739Z,3.85
2023-05-11T02:26:18.205Z,3.45
2023-05-11T02:27:20.391Z,3.55
2023-05-11T02:28:22.449Z,3.55
2023-05-11T02:29:24.939Z,3.90
2023-05-11T02:30:30.155Z,3.40
2023-05-11T02:31:37.463Z,3.45
2023-05-11T02:32:46.899Z,3.97
2023-05-11T02:33:52.516Z,4.00
2023-05-11T02:35:01.424Z,3.90
2023-05-11T02:36:05.655Z,3.72
2023-05-11T02:37:22.745Z,3.60
2023-05-11T02:38:30.703Z,3.33
2023-05-11T02:39:35.999Z,3.60
2023-05-11T02:40:47.239Z,3.37
2023-05-11T02:41:57.708Z,3.50
2023-05-11T02:43:10.259Z,3.67
2023-05-11T02:44:17.595Z,3.42
2023-05-11T02:45:20.430Z,3.72
2023-05-11T02:46:27.508Z,3.50
2023-05-11T02:47:34.721Z,3.58
2023-05-11T02:48:41.635Z,3.72
2023-05-11T02:49:49.738Z,3.33
2023-05-11T02:50:54.066Z,3.67
2023-05-11T02:51:59.347Z,4.20
2023-05-11T02:53:06.680Z,3.40
2023-05-11T02:54:10.933Z,3.30
2023-05-11T02:55:18.232Z,3.33
2023-05-11T02:56:22.249Z,3.30
2023-05-11T02:57:26.416Z,3.58
2023-05-11T02:58:30.609Z,3.45
2023-05-11T02:59:46.430Z,4.25
2023-05-11T03:00:48.849Z,3.65
2023-05-11T03:01:51.963Z,3.10
2023-05-11T03:02:54.244Z,3.90
2023-05-11T03:03:58.033Z,4.22
2023-05-11T03:05:02.102Z,3.30
2023-05-11T03:06:05.048Z,3.35
2023-05-11T03:07:26.161Z,3.50
2023-05-11T03:08:28.299Z,3.60
2023-05-11T03:09:30.737Z,3.70
2023-05-11T03:10:33.345Z,3.78
2023-05-11T03:11:35.605Z,3.58
2023-05-11T03:12:38.600Z,3.28
2023-05-11T03:13:45.634Z,3.60
2023-05-11T03:14:49.377Z,3.95
2023-05-11T03:15:52.970Z,4.88
2023-05-11T03:16:56.553Z,4.80
2023-05-11T03:18:00.349Z,4.30
2023-05-11T03:19:02.698Z,3.88
2023-05-11T03:20:06.417Z,4.60
2023-05-11T03:21:08.645Z,5.18
2023-05-11T03:22:11.859Z,4.10
2023-05-11T03:23:16.929Z,4.18
2023-05-11T03:24:19.328Z,4.17
2023-05-11T03:25:23.749Z,3.95
2023-05-11T03:26:27.831Z,4.13
2023-05-11T03:27:32.017Z,4.82
2023-05-11T03:28:35.425Z,4.93
2023-05-11T03:29:44.626Z,4.70
2023-05-11T03:30:48.254Z,4.72
2023-05-11T03:31:51.410Z,4.22
2023-05-11T03:32:55.052Z,4.30
2023-05-11T03:33:57.923Z,5.20
2023-05-11T03:35:00.634Z,4.43
2023-05-11T03:36:04.324Z,4.55
2023-05-11T03:37:10.532Z,4.82
2023-05-11T03:38:15.075Z,4.80
2023-05-11T03:39:17.958Z,4.72
2023-05-11T03:40:21.408Z,5.10
2023-05-11T03:41:30.096Z,5.50
2023-05-11T03:42:34.700Z,4.85
2023-05-11T03:43:38.352Z,4.85
2023-05-11T03:44:44.051Z,4.90
2023-05-11T03:45:48.190Z,4.97
2023-05-11T03:46:51.023Z,5.30
2023-05-11T03:47:54.918Z,5.35
2023-05-11T03:48:57.328Z,4.80
2023-05-11T03:50:03.889Z,5.28
2023-05-11T03:51:06.416Z,5.80
2023-05-11T03:52:08.805Z,5.28
2023-05-11T03:53:12.411Z,5.50
2023-05-11T03:54:14.883Z,5.28
2023-05-11T03:55:16.936Z,5.28
2023-05-11T03:56:18.960Z,5.83
2023-05-11T03:57:21.073Z,5.22
2023-05-11T03:58:23.493Z,5.45
2023-05-11T03:59:26.456Z,6.18
2023-05-11T04:00:28.705Z,5.53
2023-05-11T04:01:32.230Z,5.65
2023-05-11T04:02:37.516Z,5.43
2023-05-11T04:03:53.490Z,5.60
2023-05-11T04:04:56.853Z,5.15
2023-05-11T04:05:58.927Z,4.95
2023-05-11T04:07:01.531Z,5.80
2023-05-11T04:08:04.962Z,5.03
2023-05-11T04:09:06.972Z,5.45
2023-05-11T04:10:09.334Z,5.18
2023-05-11T04:11:11.724Z,5.15
2023-05-11T04:12:13.712Z,5.15
2023-05-11T04:13:17.194Z,5.40
2023-05-11T04:14:20.635Z,5.22
2023-05-11T04:15:23.133Z,5.13
2023-05-11T04:16:25.347Z,5.38
2023-05-11T04:17:27.450Z,4.93
2023-05-11T04:18:29.814Z,5.45
2023-05-11T04:19:31.835Z,5.05
2023-05-11T04:20:33.865Z,5.22
2023-05-11T04:21:36.098Z,4.78
2023-05-11T04:22:38.536Z,5.22
2023-05-11T04:23:40.574Z,4.85
2023-05-11T04:24:42.546Z,5.60
2023-05-11T04:25:44.548Z,4.70
2023-05-11T04:26:46.587Z,4.20
2023-05-11T04:27:48.637Z,3.90
2023-05-11T04:28:50.681Z,4.30
2023-05-11T04:29:52.746Z,4.82
2023-05-11T04:30:56.569Z,4.90
2023-05-11T04:31:58.721Z,4.68
2023-05-11T04:33:02.401Z,4.60
2023-05-11T04:34:07.674Z,4.60
2023-05-11T04:35:11.187Z,4.90
2023-05-11T04:36:14.422Z,5.03
2023-05-11T04:37:16.370Z,5.03
2023-05-11T04:38:19.326Z,5.03
2023-05-11T04:39:21.363Z,4.82
2023-05-11T04:40:23.368Z,4.88
2023-05-11T04:41:26.127Z,4.97
2023-05-11T04:42:31.384Z,4.93
2023-05-11T04:43:35.446Z,5.13
2023-05-11T04:44:37.528Z,5.07
2023-05-11T04:45:39.566Z,4.90
2023-05-11T04:46:41.644Z,4.97
2023-05-11T04:47:43.793Z,5.03
2023-05-11T04:48:46.457Z,5.03
2023-05-11T04:49:48.798Z,5.68
2023-05-11T04:50:51.114Z,4.85
2023-05-11T04:51:54.496Z,5.13
2023-05-11T04:52:56.572Z,5.32
2023-05-11T04:53:58.936Z,5.03
2023-05-11T04:55:01.047Z,5.30
2023-05-11T04:56:03.272Z,5.10
2023-05-11T04:57:05.620Z,4.88
2023-05-11T04:58:07.657Z,5.22
2023-05-11T04:59:10.742Z,4.97
2023-05-11T05:00:13.053Z,5.82
2023-05-11T05:01:15.258Z,5.50
2023-05-11T05:02:17.390Z,5.18
2023-05-11T05:03:20.268Z,5.82
2023-05-11T05:04:22.543Z,5.00
2023-05-11T05:05:24.558Z,5.43
2023-05-11T05:06:26.615Z,4.55
2023-05-11T05:07:28.967Z,4.88
2023-05-11T05:08:31.467Z,5.53
2023-05-11T05:09:34.385Z,5.40
2023-05-11T05:10:36.525Z,4.70
2023-05-11T05:11:38.629Z,5.07
2023-05-11T05:12:40.782Z,5.50
2023-05-11T05:13:42.930Z,4.78
2023-05-11T05:14:45.033Z,4.95
2023-05-11T05:15:47.050Z,5.28
2023-05-11T05:16:49.281Z,6.30
2023-05-11T05:17:51.699Z,5.28
2023-05-11T05:18:53.915Z,5.70
2023-05-11T05:19:55.894Z,5.13
2023-05-11T05:20:57.965Z,5.00
2023-05-11T05:22:00.597Z,4.95
2023-05-11T05:23:03.001Z,5.78
2023-05-11T05:24:06.306Z,4.85
2023-05-11T05:25:09.188Z,5.20
2023-05-11T05:26:11.810Z,5.90
2023-05-11T05:27:15.041Z,5.22
2023-05-11T05:28:17.540Z,4.68
2023-05-11T05:29:20.764Z,4.47
2023-05-11T05:30:23.715Z,5.73
2023-05-11T05:31:26.201Z,4.75
2023-05-11T05:32:28.945Z,4.20
2023-05-11T05:33:31.176Z,4.60
2023-05-11T05:34:33.371Z,4.35
2023-05-11T05:35:35.410Z,5.05
2023-05-11T05:36:37.563Z,4.28
2023-05-11T05:37:39.636Z,5.38
2023-05-11T05:38:41.673Z,4.10
2023-05-11T05:39:44.684Z,4.38
2023-05-11T05:40:47.914Z,4.60
2023-05-11T05:41:51.181Z,4.45
2023-05-11T05:42:53.469Z,5.35
2023-05-11T05:43:57.595Z,4.90
2023-05-11T05:44:59.561Z,4.50
2023-05-11T05:46:02.298Z,4.57
2023-05-11T05:47:05.122Z,4.88
2023-05-11T05:48:10.258Z,4.65
2023-05-11T05:49:12.496Z,4.68
2023-05-11T05:50:14.744Z,4.28
2023-05-11T05:51:17.883Z,4.80
2023-05-11T05:52:19.852Z,5.50
2023-05-11T05:53:23.125Z,5.38
2023-05-11T05:54:25.166Z,5.13
2023-05-11T05:55:28.677Z,4.88
2023-05-11T05:56:35.158Z,4.40
2023-05-11T05:57:37.223Z,4.70
2023-05-11T05:58:39.592Z,4.85
2023-05-11T05:59:41.572Z,4.45
2023-05-11T06:00:44.242Z,4.45
2023-05-11T06:01:47.528Z,4.57
2023-05-11T06:02:51.087Z,4.97
2023-05-11T06:03:59.020Z,4.57
2023-05-11T06:05:01.418Z,4.93
2023-05-11T06:06:04.462Z,4.70
2023-05-11T06:07:06.610Z,4.57
2023-05-11T06:08:11.126Z,5.10
2023-05-11T06:09:14.592Z,4.53
2023-05-11T06:10:17.707Z,5.32
2023-05-11T06:11:22.670Z,4.60
2023-05-11T06:12:26.898Z,4.57
2023-05-11T06:13:30.854Z,4.40
2023-05-11T06:14:34.644Z,4.20
2023-05-11T06:15:37.554Z,3.83
2023-05-11T06:16:47.058Z,3.60
2023-05-11T06:17:49.256Z,4.05
2023-05-11T06:18:51.478Z,4.03
2023-05-11T06:19:53.609Z,3.55
2023-05-11T06:20:59.643Z,3.92
2023-05-11T06:22:05.001Z,3.90
2023-05-11T06:23:09.824Z,4.00
2023-05-11T06:24:14.832Z,3.75
2023-05-11T06:25:18.594Z,3.85
2023-05-11T06:26:25.222Z,4.85
2023-05-11T06:27:28.188Z,4.53
2023-05-11T06:28:32.202Z,3.72
2023-05-11T06:29:38.828Z,3.70
2023-05-11T06:30:41.116Z,3.72
2023-05-11T06:31:44.447Z,4.05
2023-05-11T06:32:46.543Z,3.80
2023-05-11T06:33:49.340Z,4.50
2023-05-11T06:34:58.522Z,4.43
2023-05-11T06:36:07.397Z,4.40
2023-05-11T06:37:11.141Z,3.67
2023-05-11T06:38:13.165Z,3.50
2023-05-11T06:39:16.169Z,4.03
2023-05-11T06:40:19.208Z,3.47
2023-05-11T06:41:21.511Z,4.40
2023-05-11T06:42:23.827Z,4.10
2023-05-11T06:43:26.270Z,3.80
2023-05-11T06:44:28.837Z,3.60
2023-05-11T06:45:32.850Z,3.90
2023-05-11T06:46:35.030Z,4.10
2023-05-11T06:47:37.108Z,3.60
2023-05-11T06:48:39.375Z,4.22
2023-05-11T06:49:44.387Z,4.00
2023-05-11T06:50:46.498Z,4.30
2023-05-11T06:51:48.739Z,3.50
2023-05-11T06:52:50.834Z,3.72
2023-05-11T06:53:52.864Z,3.42
2023-05-11T06:54:55.092Z,3.50
2023-05-11T06:55:57.174Z,3.78
2023-05-11T06:56:59.120Z,3.85
2023-05-11T06:58:01.076Z,4.38
2023-05-11T06:59:03.119Z,4.35
2023-05-11T07:00:06.115Z,3.92
2023-05-11T07:01:08.257Z,3.55
2023-05-11T07:02:10.640Z,3.65
2023-05-11T07:03:13.097Z,3.92
2023-05-11T07:04:15.374Z,4.15
2023-05-11T07:05:17.460Z,4.53
2023-05-11T07:06:19.678Z,3.88
2023-05-11T07:07:22.796Z,3.25
2023-05-11T07:08:24.797Z,4.72
2023-05-11T07:09:26.874Z,4.82
2023-05-11T07:10:28.973Z,4.22
2023-05-11T07:11:32.210Z,4.13
2023-05-11T07:12:34.227Z,3.92
2023-05-11T07:13:36.294Z,3.78
2023-05-11T07:14:38.393Z,3.30
2023-05-11T07:15:40.384Z,3.53
2023-05-11T07:16:42.809Z,3.35
2023-05-11T07:17:47.971Z,3.03
2023-05-11T07:18:50.367Z,3.17
2023-05-11T07:19:52.579Z,3.03
2023-05-11T07:20:54.538Z,3.50
2023-05-11T07:21:56.539Z,3.78
2023-05-11T07:22:59.448Z,3.97
2023-05-11T07:24:01.536Z,3.40
2023-05-11T07:25:04.763Z,3.20
2023-05-11T07:26:09.575Z,2.80
2023-05-11T07:27:11.690Z,2.92
2023-05-11T07:28:13.685Z,2.83
2023-05-11T07:29:15.965Z,3.28
2023-05-11T07:30:18.702Z,2.83
2023-05-11T07:31:21.289Z,3.08
2023-05-11T07:32:23.451Z,3.10
2023-05-11T07:33:25.560Z,2.90
2023-05-11T07:34:27.581Z,2.90
2023-05-11T07:35:29.973Z,2.40
2023-05-11T07:36:32.235Z,3.10
2023-05-11T07:37:34.265Z,2.67
2023-05-11T07:38:36.807Z,2.72
2023-05-11T07:39:38.809Z,2.60
2023-05-11T07:40:40.908Z,3.13
2023-05-11T07:41:43.204Z,2.90
2023-05-11T07:42:45.235Z,2.55
2023-05-11T07:43:47.330Z,3.10
2023-05-11T07:44:49.369Z,3.00
2023-05-11T07:45:51.522Z,2.50
2023-05-11T07:46:53.685Z,2.80
2023-05-11T07:47:56.249Z,3.00
2023-05-11T07:49:11.208Z,3.53
2023-05-11T07:50:17.594Z,2.65
2023-05-11T07:51:19.721Z,3.47
2023-05-11T07:52:21.711Z,2.72
2023-05-11T07:53:23.854Z,3.08
2023-05-11T07:54:26.403Z,3.20
2023-05-11T07:55:30.750Z,3.10
2023-05-11T07:56:32.795Z,3.08
2023-05-11T07:57:34.799Z,2.70
2023-05-11T07:58:36.934Z,4.03
2023-05-11T07:59:38.957Z,3.05
2023-05-11T08:00:41.612Z,2.95
2023-05-11T08:01:43.779Z,3.50
2023-05-11T08:02:46.101Z,2.70
2023-05-11T08:03:48.423Z,3.05
2023-05-11T08:04:50.527Z,3.08
2023-05-11T08:05:52.542Z,2.70
2023-05-11T08:06:54.721Z,2.90
2023-05-11T08:07:56.788Z,2.50
2023-05-11T08:08:58.932Z,3.35
2023-05-11T08:10:00.884Z,3.40
2023-05-11T08:11:03.816Z,3.55
2023-05-11T08:12:05.910Z,3.35
2023-05-11T08:13:08.319Z,2.60
2023-05-11T08:14:10.348Z,2.75
2023-05-11T08:15:12.401Z,3.40
2023-05-11T08:16:15.134Z,3.28
2023-05-11T08:17:17.228Z,3.03
2023-05-11T08:18:19.395Z,3.27
2023-05-11T08:19:21.458Z,3.20
2023-05-11T08:20:23.640Z,3.30
2023-05-11T08:21:26.388Z,3.00
2023-05-11T08:22:28.414Z,3.28
2023-05-11T08:23:30.551Z,2.65
2023-05-11T08:24:32.639Z,2.50
2023-05-11T08:25:35.057Z,2.83
2023-05-11T08:26:37.225Z,3.35
2023-05-11T08:27:39.284Z,3.00
2023-05-11T08:28:41.436Z,3.00
2023-05-11T08:29:43.894Z,3.15
2023-05-11T08:30:46.039Z,2.90
2023-05-11T08:31:49.617Z,2.85
2023-05-11T08:32:58.397Z,3.15
2023-05-11T08:34:01.262Z,2.65
2023-05-11T08:35:04.360Z,3.17
2023-05-11T08:36:07.247Z,2.45
2023-05-11T08:37:09.360Z,2.10
2023-05-11T08:38:11.388Z,3.00
2023-05-11T08:39:13.401Z,3.30
2023-05-11T08:40:15.466Z,2.97
2023-05-11T08:41:17.581Z,2.88
2023-05-11T08:42:23.993Z,2.45
2023-05-11T08:43:27.752Z,2.20
2023-05-11T08:44:31.697Z,2.15
2023-05-11T08:45:35.270Z,1.90
2023-05-11T08:46:42.493Z,2.13
2023-05-11T08:47:46.015Z,2.70
2023-05-11T08:48:48.811Z,2.58
2023-05-11T08:49:54.427Z,2.93
2023-05-11T08:50:57.097Z,3.10
2023-05-11T08:51:59.940Z,3.20
2023-05-11T08:53:02.273Z,3.00
2023-05-11T08:54:06.296Z,3.22
2023-05-11T08:55:09.454Z,3.10
2023-05-11T08:56:13.125Z,2.30
2023-05-11T08:57:15.311Z,3.03
2023-05-11T08:58:22.362Z,2.75
2023-05-11T08:59:27.331Z,2.75
2023-05-11T09:00:31.238Z,3.40
2023-05-11T09:01:35.686Z,2.65
2023-05-11T09:02:38.399Z,3.05
2023-05-11T09:03:41.536Z,2.60
2023-05-11T09:04:48.055Z,2.90
2023-05-11T09:05:51.210Z,2.92
2023-05-11T09:06:53.873Z,3.03
2023-05-11T09:08:02.149Z,2.88
2023-05-11T09:09:05.612Z,2.60
2023-05-11T09:10:08.794Z,2.67
2023-05-11T09:11:11.313Z,2.73
2023-05-11T09:12:14.268Z,2.50
2023-05-11T09:13:16.826Z,2.20
2023-05-11T09:14:19.167Z,2.58
2023-05-11T09:15:21.597Z,2.47
2023-05-11T09:16:36.132Z,2.47
2023-05-11T09:17:39.451Z,2.70
2023-05-11T09:18:52.721Z,2.47
2023-05-11T09:20:05.232Z,2.88
2023-05-11T09:21:07.780Z,2.55
2023-05-11T09:22:09.900Z,2.53
2023-05-11T09:23:17.071Z,2.55
2023-05-11T09:24:20.738Z,2.75
2023-05-11T09:25:23.608Z,2.60
2023-05-11T09:26:30.004Z,2.60
2023-05-11T09:27:32.608Z,2.40
2023-05-11T09:28:35.964Z,2.53
2023-05-11T09:29:38.250Z,2.50
2023-05-11T09:30:40.253Z,2.95
2023-05-11T09:31:43.985Z,2.55
2023-05-11T09:33:02.704Z,2.73
2023-05-11T09:34:20.602Z,2.42
2023-05-11T09:35:43.148Z,2.60
2023-05-11T09:36:53.255Z,1.83
2023-05-11T09:38:00.752Z,2.40
2023-05-11T09:39:04.268Z,2.80
2023-05-11T09:40:26.175Z,2.50
2023-05-11T09:41:34.870Z,2.85
2023-05-11T09:42:37.572Z,2.60
2023-05-11T09:43:39.768Z,2.40
2023-05-11T09:44:42.845Z,2.70
2023-05-11T09:45:46.664Z,2.80
2023-05-11T09:46:48.802Z,2.80
2023-05-11T09:47:50.952Z,2.38
2023-05-11T09:49:02.069Z,2.72
2023-05-11T09:50:16.748Z,2.70
2023-05-11T09:51:31.376Z,2.55
2023-05-11T09:52:33.505Z,2.70
2023-05-11T09:53:46.148Z,2.50
2023-05-11T09:54:51.362Z,2.70
2023-05-11T09:55:55.066Z,2.70
2023-05-11T09:57:00.263Z,2.60
2023-05-11T09:58:02.769Z,2.70
2023-05-11T09:59:04.784Z,2.90
2023-05-11T10:00:14.750Z,2.60
2023-05-11T10:01:18.198Z,2.78
2023-05-11T10:02:24.683Z,2.60
2023-05-11T10:03:26.873Z,2.67
2023-05-11T10:04:31.849Z,2.67
2023-05-11T10:05:36.633Z,2.70
2023-05-11T10:06:53.713Z,3.10
2023-05-11T10:08:01.336Z,1.80
2023-05-11T10:09:10.432Z,2.20
2023-05-11T10:10:13.777Z,2.85
2023-05-11T10:11:15.910Z,3.22
2023-05-11T10:12:19.715Z,2.80
2023-05-11T10:13:21.761Z,3.22
2023-05-11T10:14:27.084Z,3.15
2023-05-11T10:15:30.730Z,2.50
2023-05-11T10:16:33.150Z,1.80
2023-05-11T10:17:37.022Z,1.83
2023-05-11T10:18:40.547Z,1.50
2023-05-11T10:19:42.976Z,1.95
2023-05-11T10:20:45.168Z,1.73
2023-05-11T10:21:47.688Z,1.90
2023-05-11T10:22:53.429Z,1.90
2023-05-11T10:23:57.508Z,2.00
2023-05-11T10:25:00.407Z,1.70
2023-05-11T10:26:04.836Z,1.90
2023-05-11T10:27:07.060Z,1.88
2023-05-11T10:28:09.702Z,2.57
2023-05-11T10:29:13.146Z,2.10
2023-05-11T10:30:17.044Z,3.15
2023-05-11T10:31:24.262Z,2.80
2023-05-11T10:32:27.830Z,1.80
2023-05-11T10:33:30.538Z,2.22
2023-05-11T10:34:33.980Z,3.10
2023-05-11T10:35:38.546Z,1.75
2023-05-11T10:36:40.735Z,1.60
2023-05-11T10:37:43.401Z,1.92
2023-05-11T10:38:45.507Z,1.83
2023-05-11T10:39:50.292Z,1.67
2023-05-11T10:40:54.608Z,2.80
2023-05-11T10:42:22.113Z,3.17
2023-05-11T10:43:47.901Z,2.83
2023-05-11T10:44:52.680Z,2.80
2023-05-11T10:46:21.572Z,2.80
2023-05-11T10:48:21.215Z,2.25
2023-05-11T10:49:43.443Z,3.50
2023-05-11T10:51:05.662Z,2.65
2023-05-11T10:52:26.014Z,2.87
2023-05-11T10:53:46.395Z,2.80
2023-05-11T10:55:07.661Z,2.80
2023-05-11T10:56:12.549Z,2.45
2023-05-11T10:57:20.341Z,1.63
2023-05-11T10:59:02.891Z,3.33
2023-05-11T11:00:31.281Z,2.92
2023-05-11T11:01:44.716Z,2.50
2023-05-11T11:02:46.880Z,1.73
2023-05-11T11:04:05.214Z,1.80
2023-05-11T11:05:10.888Z,1.97
2023-05-11T11:06:23.897Z,2.90
2023-05-11T11:07:25.989Z,2.17
2023-05-11T11:08:28.639Z,1.80
2023-05-11T11:09:56.178Z,2.10
2023-05-11T11:10:58.984Z,1.95
2023-05-11T11:12:09.766Z,2.13
2023-05-11T11:13:13.666Z,2.03
2023-05-11T11:14:19.366Z,2.50
2023-05-11T11:15:21.484Z,2.88
2023-05-11T11:16:25.264Z,2.90
2023-05-11T11:17:32.031Z,1.85
2023-05-11T11:18:34.420Z,1.67
2023-05-11T11:19:36.871Z,1.70
2023-05-11T11:20:53.058Z,1.63
2023-05-11T11:21:55.729Z,2.05
2023-05-11T11:22:58.241Z,1.90
2023-05-11T11:24:02.330Z,2.45
2023-05-11T11:25:06.668Z,2.40
2023-05-11T11:26:10.238Z,2.00
2023-05-11T11:27:12.762Z,1.87
2023-05-11T11:28:14.764Z,1.98
2023-05-11T11:29:16.784Z,1.80
2023-05-11T11:30:23.899Z,1.60
2023-05-11T11:31:28.348Z,1.88
2023-05-11T11:32:30.472Z,1.80
2023-05-11T11:33:33.932Z,1.80
2023-05-11T11:34:36.591Z,2.03
2023-05-11T11:35:41.836Z,1.98
2023-05-11T11:36:56.288Z,2.20
2023-05-11T11:38:06.180Z,2.30
2023-05-11T11:39:08.595Z,2.08
2023-05-11T11:40:15.266Z,1.90
2023-05-11T11:41:29.436Z,2.35
2023-05-11T11:42:32.205Z,2.15
2023-05-11T11:43:45.750Z,1.95
2023-05-11T11:44:48.552Z,1.90
2023-05-11T11:45:56.776Z,2.35
2023-05-11T11:47:14.053Z,1.70
2023-05-11T11:48:20.813Z,1.80
2023-05-11T11:49:27.560Z,1.80
2023-05-11T11:50:29.723Z,1.80
2023-05-11T11:51:34.631Z,1.92
2023-05-11T11:52:36.738Z,2.20
2023-05-11T11:53:40.996Z,2.10
2023-05-11T11:54:45.415Z,1.60
2023-05-11T11:55:50.290Z,1.60
2023-05-11T11:56:52.398Z,1.50
2023-05-11T11:57:54.455Z,1.30
2023-05-11T11:59:00.497Z,1.50
2023-05-11T12:00:10.976Z,1.50
2023-05-11T12:01:21.352Z,1.30
2023-05-11T12:02:23.554Z,1.63
2023-05-11T12:03:26.316Z,1.80
2023-05-11T12:04:57.815Z,1.60
2023-05-11T12:06:01.822Z,1.30
2023-05-11T12:07:08.086Z,1.60
2023-05-11T12:08:13.707Z,1.42
2023-05-11T12:09:19.449Z,1.48
2023-05-11T12:10:23.025Z,1.52
2023-05-11T12:11:26.363Z,1.67
2023-05-11T12:12:30.303Z,1.60
2023-05-11T12:13:32.926Z,1.67
2023-05-11T12:14:35.318Z,1.50
2023-05-11T12:15:37.423Z,1.77
2023-05-11T12:16:39.496Z,1.58
2023-05-11T12:17:41.618Z,1.65
2023-05-11T12:18:52.936Z,1.90
2023-05-11T12:19:55.881Z,1.90
2023-05-11T12:20:57.932Z,2.40
2023-05-11T12:22:00.270Z,2.13
2023-05-11T12:23:02.390Z,2.00
2023-05-11T12:24:05.796Z,1.90
2023-05-11T12:25:08.947Z,2.00
2023-05-11T12:26:10.951Z,2.00
2023-05-11T12:27:13.442Z,1.60
2023-05-11T12:28:20.083Z,2.25
2023-05-11T12:29:22.138Z,1.60
2023-05-11T12:30:26.970Z,1.40
2023-05-11T12:31:34.659Z,1.27
2023-05-11T12:32:36.824Z,1.70
2023-05-11T12:33:49.282Z,1.60
2023-05-11T12:35:02.353Z,1.90
2023-05-11T12:36:04.641Z,2.30
2023-05-11T12:37:06.973Z,2.72
2023-05-11T12:38:11.845Z,2.42
2023-05-11T12:39:24.690Z,2.70
2023-05-11T12:40:27.203Z,1.90
2023-05-11T12:41:29.240Z,1.70
2023-05-11T12:42:33.930Z,1.67
2023-05-11T12:43:37.820Z,1.77
2023-05-11T12:44:41.039Z,1.50
2023-05-11T12:45:43.133Z,1.77
2023-05-11T12:46:47.232Z,2.03
2023-05-11T12:47:51.135Z,2.13
2023-05-11T12:48:53.403Z,2.20
2023-05-11T12:49:55.722Z,2.67
2023-05-11T12:50:58.023Z,2.00
2023-05-11T12:52:00.519Z,1.80
2023-05-11T12:53:19.292Z,2.00
2023-05-11T12:55:00.745Z,1.80
2023-05-11T12:56:04.329Z,1.80
2023-05-11T12:57:23.709Z,1.88
2023-05-11T12:58:25.959Z,1.80
2023-05-11T12:59:32.275Z,1.77
2023-05-11T13:00:34.380Z,2.10
2023-05-11T13:01:36.943Z,1.70
2023-05-11T13:02:51.199Z,2.15
2023-05-11T13:03:53.481Z,2.10
2023-05-11T13:04:55.646Z,1.58
2023-05-11T13:06:09.046Z,2.37
2023-05-11T13:07:12.470Z,2.72
2023-05-11T13:08:16.617Z,2.38
2023-05-11T13:09:25.571Z,2.00
2023-05-11T13:10:27.927Z,2.17
2023-05-11T13:11:30.248Z,2.30
2023-05-11T13:12:34.304Z,2.17
2023-05-11T13:13:36.253Z,1.90
2023-05-11T13:14:39.027Z,2.40
2023-05-11T13:15:51.671Z,2.30
2023-05-11T13:16:54.484Z,2.30
2023-05-11T13:17:58.913Z,2.40
2023-05-11T13:19:05.908Z,2.40
2023-05-11T13:20:18.724Z,2.15
2023-05-11T13:21:20.852Z,2.20
2023-05-11T13:22:23.035Z,2.30
2023-05-11T13:23:25.104Z,2.13
2023-05-11T13:24:27.379Z,2.20
2023-05-11T13:25:29.532Z,2.28
2023-05-11T13:26:32.196Z,2.15
2023-05-11T13:27:34.253Z,2.20
2023-05-11T13:28:36.325Z,2.22
2023-05-11T13:29:38.705Z,2.15
2023-05-11T13:30:40.956Z,2.00
2023-05-11T13:31:50.868Z,2.40
2023-05-11T13:32:52.896Z,2.30
2023-05-11T13:33:55.285Z,1.83
2023-05-11T13:34:57.322Z,2.05
2023-05-11T13:35:59.349Z,2.65
2023-05-11T13:37:01.435Z,1.98
2023-05-11T13:38:03.448Z,2.00
2023-05-11T13:39:06.263Z,2.30
2023-05-11T13:40:10.523Z,2.22
2023-05-11T13:41:14.117Z,2.33
2023-05-11T13:42:16.166Z,2.20
2023-05-11T13:43:18.218Z,2.10
2023-05-11T13:44:20.221Z,2.70
2023-05-11T13:45:22.265Z,2.20
2023-05-11T13:46:24.361Z,2.40
2023-05-11T13:47:26.545Z,2.47
2023-05-11T13:48:28.635Z,2.10
2023-05-11T13:49:30.656Z,2.22
2023-05-11T13:50:32.772Z,2.50
2023-05-11T13:51:34.969Z,2.00
2023-05-11T13:52:37.484Z,2.08
2023-05-11T13:53:39.511Z,2.20
2023-05-11T13:54:42.190Z,2.05
2023-05-11T13:55:44.453Z,2.20
2023-05-11T13:56:46.472Z,1.95
2023-05-11T13:57:48.558Z,2.33
2023-05-11T13:58:50.870Z,2.00
2023-05-11T13:59:52.795Z,2.58
2023-05-11T14:01:07.200Z,2.00
2023-05-11T14:02:10.560Z,2.15
2023-05-11T14:03:12.741Z,2.55
2023-05-11T14:04:14.898Z,2.00
2023-05-11T14:05:17.753Z,2.10
2023-05-11T14:06:23.041Z,2.13
2023-05-11T14:07:32.677Z,2.00
2023-05-11T14:08:45.324Z,2.33
2023-05-11T14:09:48.740Z,2.37
2023-05-11T14:10:50.918Z,2.20
2023-05-11T14:11:52.984Z,2.75
2023-05-11T14:12:54.976Z,1.90
2023-05-11T14:13:56.977Z,2.50
2023-05-11T14:14:59.086Z,1.80
2023-05-11T14:16:01.606Z,2.05
2023-05-11T14:17:03.680Z,2.05
2023-05-11T14:18:07.994Z,2.25
2023-05-11T14:19:12.477Z,1.90
2023-05-11T14:20:14.673Z,1.90
2023-05-11T14:21:17.644Z,1.90
2023-05-11T14:22:19.705Z,1.90
2023-05-11T14:23:21.703Z,2.05
2023-05-11T14:24:23.710Z,2.03